Time;durP1;ratioP1;P1;durP2;ratioP2;P2;SDS_P1;SDS_P2;PMS_P1;PMS_P2;Temp;Humidity;BMP_temperature;BMP_pressure;BME280_temperature;BME280_humidity;BME280_pressure;Samples;Min_cycle;Max_cycle;Signal;HPM_P1;HPM_P2
2021/12/05 00:31:26;;;;;;;4.38;1.20;;;4.80;99.90;;;;;;5281193;22;20047;-79
2021/12/05 00:34:16;;;;;;;4.35;1.00;;;4.80;99.90;;;;;;5036659;28;20052;-79
2021/12/05 00:43:17;;;;;;;3.60;1.00;;;4.70;99.90;;;;;;5032645;28;20049;-78
2021/12/05 00:59:41;;;;;;;3.08;0.80;;;4.80;99.90;;;;;;5031226;28;20045;-78
2021/12/05 01:05:18;;;;;;;3.45;0.98;;;4.90;99.90;;;;;;5031896;28;20068;-80
2021/12/05 01:13:42;;;;;;;3.97;1.48;;;4.90;99.90;;;;;;4989356;28;20045;-78
2021/12/05 01:16:18;;;;;;;2.67;0.93;;;4.90;99.90;;;;;;5036445;28;20045;-80
2021/12/05 01:18:46;;;;;;;3.50;0.95;;;4.90;99.90;;;;;;5048859;28;20044;-79
2021/12/05 01:21:20;;;;;;;2.38;0.80;;;4.90;99.90;;;;;;5046025;28;20049;-80
2021/12/05 01:23:57;;;;;;;3.13;0.75;;;5.00;99.90;;;;;;5031344;28;20048;-80
2021/12/05 01:26:28;;;;;;;2.40;0.70;;;4.90;99.90;;;;;;5031238;28;20304;-79
2021/12/05 01:29:17;;;;;;;3.42;0.88;;;4.90;99.90;;;;;;5049671;28;20968;-80
2021/12/05 01:31:56;;;;;;;3.53;1.02;;;5.00;99.90;;;;;;5050701;28;20132;-80
2021/12/05 01:37:20;;;;;;;;;;;5.00;99.90;;;;;;5049953;28;20784;-80
2021/12/05 01:40:00;;;;;;;5.35;1.00;;;5.00;99.90;;;;;;5026317;28;19929;-81
2021/12/05 01:53:55;;;;;;;4.25;1.02;;;5.00;99.90;;;;;;5025904;28;20497;-80
2021/12/05 01:56:49;;;;;;;;;;;5.00;99.90;;;;;;5051121;28;20049;-78
2021/12/05 01:59:34;;;;;;;3.88;1.00;;;5.00;99.90;;;;;;5037106;28;19936;-79
2021/12/05 02:10:51;;;;;;;6.38;1.10;;;5.10;99.90;;;;;;5049567;28;20049;-77
2021/12/05 02:16:19;;;;;;;4.53;1.00;;;5.10;99.90;;;;;;5049555;28;20418;-80
2021/12/05 02:30:04;;;;;;;6.32;1.05;;;5.10;99.90;;;;;;5041251;28;20125;-77
2021/12/05 02:38:36;;;;;;;5.95;1.27;;;5.10;99.90;;;;;;5002448;28;20045;-78
2021/12/05 02:41:09;;;;;;;6.60;1.13;;;5.00;99.90;;;;;;5051652;28;20056;-78
2021/12/05 02:43:40;;;;;;;3.95;1.00;;;5.10;99.90;;;;;;5052344;28;20075;-80
2021/12/05 02:46:10;;;;;;;3.70;0.95;;;5.10;99.90;;;;;;5052879;28;20098;-79
2021/12/05 02:48:38;;;;;;;4.32;1.17;;;5.10;99.90;;;;;;5052880;28;20068;-79
2021/12/05 02:51:12;;;;;;;5.03;1.10;;;5.10;99.90;;;;;;5052840;28;20072;-80
2021/12/05 02:53:45;;;;;;;3.90;0.90;;;5.10;99.90;;;;;;5051100;28;20060;-78
2021/12/05 02:56:14;;;;;;;4.97;1.10;;;5.10;99.90;;;;;;5050687;28;20432;-79
2021/12/05 02:58:45;;;;;;;3.20;0.88;;;5.10;99.90;;;;;;5049828;28;20049;-79
2021/12/05 03:01:21;;;;;;;4.78;1.25;;;5.10;99.90;;;;;;5032728;28;20552;-80
2021/12/05 03:03:51;;;;;;;4.47;1.10;;;5.10;99.90;;;;;;5032471;28;20079;-79
2021/12/05 03:06:23;;;;;;;3.03;0.80;;;5.10;99.90;;;;;;5051890;28;20072;-81
2021/12/05 03:08:55;;;;;;;2.80;0.80;;;5.10;99.90;;;;;;5052201;28;20049;-80
2021/12/05 03:11:25;;;;;;;3.90;1.45;;;5.20;99.90;;;;;;5052143;28;20084;-78
2021/12/05 03:13:52;;;;;;;3.97;1.15;;;5.20;99.90;;;;;;5052389;28;20045;-79
2021/12/05 03:16:24;;;;;;;3.45;0.90;;;5.20;99.90;;;;;;5050030;28;20065;-78
2021/12/05 03:18:52;;;;;;;4.38;1.23;;;5.20;99.90;;;;;;5052067;28;20072;-79
2021/12/05 03:21:20;;;;;;;3.58;0.77;;;5.20;99.90;;;;;;5051850;28;20132;-79
2021/12/05 03:23:51;;;;;;;4.35;0.90;;;5.30;99.90;;;;;;5052417;28;20391;-80
2021/12/05 03:26:23;;;;;;;3.17;1.20;;;5.30;99.90;;;;;;5037273;28;20056;-78
2021/12/05 03:28:54;;;;;;;3.72;0.90;;;5.30;99.90;;;;;;5032310;28;20049;-78
2021/12/05 03:31:21;;;;;;;4.13;1.05;;;5.30;99.90;;;;;;5031830;28;20518;-81
2021/12/05 03:33:49;;;;;;;7.40;1.13;;;5.30;99.60;;;;;;5031892;28;20049;-80
2021/12/05 03:36:16;;;;;;;4.07;0.80;;;5.30;99.50;;;;;;5043060;28;20465;-78
2021/12/05 03:38:44;;;;;;;4.28;1.10;;;5.30;99.50;;;;;;5051734;28;20059;-81
2021/12/05 03:41:14;;;;;;;4.13;1.00;;;5.30;99.40;;;;;;5051889;28;20051;-81
2021/12/05 03:43:46;;;;;;;3.92;0.90;;;5.30;99.30;;;;;;5049911;28;20057;-78
2021/12/05 03:46:15;;;;;;;4.68;0.90;;;5.30;99.20;;;;;;5051190;28;20585;-79
2021/12/05 03:48:46;;;;;;;6.72;1.00;;;5.30;99.20;;;;;;5051553;28;20076;-81
2021/12/05 03:51:17;;;;;;;4.90;0.88;;;5.30;99.20;;;;;;5050177;28;20124;-79
2021/12/05 03:53:44;;;;;;;5.13;0.90;;;5.30;99.10;;;;;;5051704;28;20055;-82
2021/12/05 03:56:14;;;;;;;3.17;0.77;;;5.30;99.00;;;;;;5046518;28;20051;-80
2021/12/05 03:58:41;;;;;;;5.18;0.90;;;5.30;98.80;;;;;;5031700;28;20057;-80
2021/12/05 04:01:11;;;;;;;3.38;1.00;;;5.30;98.80;;;;;;5031821;28;20083;-80
2021/12/05 04:03:40;;;;;;;4.72;1.23;;;5.90;99.90;;;;;;5029861;28;20049;-80
2021/12/05 04:06:12;;;;;;;3.05;1.00;;;5.40;99.90;;;;;;5030996;28;20109;-79
2021/12/05 04:08:40;;;;;;;3.33;0.80;;;5.40;99.90;;;;;;5028888;28;20048;-80
2021/12/05 04:11:13;;;;;;;3.88;0.95;;;5.40;99.90;;;;;;5029022;28;20267;-78
2021/12/05 04:13:41;;;;;;;5.13;1.00;;;5.40;99.90;;;;;;5029081;28;20132;-79
2021/12/05 04:16:09;;;;;;;4.43;0.90;;;4.30;99.90;;;;;;5028930;28;20059;-79
2021/12/05 04:18:37;;;;;;;4.00;0.93;;;5.40;99.90;;;;;;5046110;28;20049;-79
2021/12/05 04:21:06;;;;;;;5.10;1.00;;;5.40;99.90;;;;;;5048720;28;20123;-80
2021/12/05 04:23:33;;;;;;;3.28;1.00;;;5.40;99.90;;;;;;5049065;28;20041;-80
2021/12/05 04:26:01;;;;;;;5.93;1.17;;;5.40;99.90;;;;;;5048925;28;20049;-77
2021/12/05 04:28:30;;;;;;;5.20;1.00;;;5.50;99.90;;;;;;5035300;28;20481;-80
2021/12/05 04:30:58;;;;;;;4.30;1.10;;;5.40;99.90;;;;;;5033424;28;20053;-80
2021/12/05 04:33:26;;;;;;;2.88;0.73;;;5.40;99.90;;;;;;5033683;28;20121;-79
2021/12/05 04:35:53;;;;;;;4.47;0.90;;;5.40;99.90;;;;;;5034107;28;20048;-79
2021/12/05 04:38:20;;;;;;;4.93;0.80;;;5.40;99.90;;;;;;5045649;28;20068;-77
2021/12/05 04:40:48;;;;;;;4.93;1.00;;;5.50;99.90;;;;;;5054588;28;20049;-78
2021/12/05 04:43:15;;;;;;;3.78;0.90;;;5.40;99.90;;;;;;5054575;28;20143;-79
2021/12/05 04:45:45;;;;;;;4.35;1.00;;;5.40;99.90;;;;;;5041891;28;20064;-78
2021/12/05 04:48:12;;;;;;;5.70;1.00;;;5.40;99.90;;;;;;5040158;28;20041;-80
2021/12/05 04:50:41;;;;;;;3.25;0.85;;;5.40;99.90;;;;;;5052077;28;20148;-80
2021/12/05 04:53:08;;;;;;;5.32;1.02;;;5.30;99.90;;;;;;5052502;28;20138;-81
2021/12/05 04:55:37;;;;;;;6.53;1.05;;;5.40;99.90;;;;;;5052372;28;20536;-78
2021/12/05 04:58:06;;;;;;;5.53;1.25;;;5.30;99.90;;;;;;5047956;28;20080;-77
2021/12/05 05:00:38;;;;;;;3.10;0.90;;;5.30;99.90;;;;;;5032051;28;20487;-79
2021/12/05 05:03:08;;;;;;;3.50;0.80;;;5.30;99.90;;;;;;5034578;28;20045;-78
2021/12/05 05:05:38;;;;;;;4.78;0.70;;;5.30;99.90;;;;;;5049486;28;20060;-80
2021/12/05 05:08:06;;;;;;;3.03;1.00;;;5.20;99.90;;;;;;5053822;28;20482;-81
2021/12/05 05:10:34;;;;;;;3.17;0.80;;;5.30;99.90;;;;;;5034490;28;20145;-79
2021/12/05 05:13:01;;;;;;;3.50;0.90;;;5.20;99.90;;;;;;5034625;28;20107;-80
2021/12/05 05:15:31;;;;;;;4.40;0.90;;;5.30;99.90;;;;;;5034467;28;20156;-79
2021/12/05 05:18:00;;;;;;;4.38;1.13;;;5.30;99.90;;;;;;5035400;28;20100;-78
2021/12/05 05:20:35;;;;;;;3.35;0.85;;;5.30;99.90;;;;;;5034205;28;20144;-81
2021/12/05 05:40:12;;;;;;;2.97;0.90;;;5.10;98.40;;;;;;5035542;28;20056;-78
2021/12/05 05:43:14;;;;;;;6.47;0.85;;;5.10;98.70;;;;;;5032797;28;20061;-80
2021/12/05 05:48:39;;;;;;;4.40;1.00;;;5.00;98.90;;;;;;5034975;28;20041;-79
2021/12/05 05:51:10;;;;;;;5.13;1.00;;;4.90;99.20;;;;;;5035075;28;20486;-80
2021/12/05 05:53:39;;;;;;;3.85;1.58;;;4.80;99.50;;;;;;5036963;28;20053;-79
2021/12/05 05:56:13;;;;;;;4.88;0.90;;;4.70;99.60;;;;;;5035995;28;20088;-80
2021/12/05 05:58:45;;;;;;;4.23;1.00;;;4.70;99.80;;;;;;5037549;28;20045;-79
2021/12/05 06:01:41;;;;;;;3.80;1.20;;;4.70;99.90;;;;;;5037901;28;20045;-81
2021/12/05 06:04:10;;;;;;;3.75;0.90;;;4.60;99.90;;;;;;5037329;28;20136;-78
2021/12/05 06:06:37;;;;;;;2.60;0.73;;;4.60;99.90;;;;;;5046114;28;20048;-78
2021/12/05 06:09:06;;;;;;;2.53;0.70;;;4.60;99.90;;;;;;5057679;28;20067;-81
2021/12/05 06:11:34;;;;;;;3.47;1.38;;;4.60;99.90;;;;;;5055142;28;20045;-80
2021/12/05 06:14:02;;;;;;;3.97;0.90;;;4.60;99.90;;;;;;5054932;28;20164;-79
2021/12/05 06:16:32;;;;;;;5.18;0.90;;;4.50;99.90;;;;;;5056129;28;20049;-81
2021/12/05 06:19:00;;;;;;;5.38;1.00;;;4.50;99.90;;;;;;5057127;28;20041;-77
2021/12/05 06:21:27;;;;;;;3.75;0.90;;;4.50;99.90;;;;;;5052392;28;20136;-79
2021/12/05 06:23:55;;;;;;;7.30;0.93;;;4.50;99.90;;;;;;5057082;28;20045;-79
2021/12/05 06:26:34;;;;;;;3.45;0.80;;;4.50;99.90;;;;;;5057533;28;20053;-79
2021/12/05 06:29:08;;;;;;;2.70;0.93;;;4.40;99.90;;;;;;5049791;28;20087;-81
2021/12/05 06:31:54;;;;;;;4.40;1.05;;;4.40;99.90;;;;;;5052498;28;20071;-79
2021/12/05 06:37:34;;;;;;;6.57;1.25;;;4.40;99.90;;;;;;5039511;28;20107;-80
2021/12/05 06:40:35;;;;;;;2.75;0.80;;;4.30;99.90;;;;;;5037357;28;20143;-78
2021/12/05 06:45:55;;;;;;;2.13;0.80;;;4.30;99.90;;;;;;5037687;28;20088;-78
2021/12/05 06:46:02;;;;;;;3.25;0.70;;;4.30;99.90;;;;;;5043139;28;20037;-77
2021/12/05 06:48:30;;;;;;;2.63;0.65;;;4.30;99.90;;;;;;5037074;28;20045;-78
2021/12/05 06:50:57;;;;;;;3.90;0.70;;;4.30;99.90;;;;;;5036434;28;20049;-79
2021/12/05 06:53:24;;;;;;;4.22;0.80;;;4.30;99.90;;;;;;5036731;28;20077;-79
2021/12/05 06:55:51;;;;;;;7.68;1.10;;;4.30;99.90;;;;;;5034245;28;20498;-80
2021/12/05 06:58:20;;;;;;;4.70;1.00;;;4.30;99.90;;;;;;5035217;28;20056;-80
2021/12/05 07:00:47;;;;;;;3.20;0.80;;;4.30;99.90;;;;;;5035352;28;20446;-78
2021/12/05 07:03:14;;;;;;;2.67;0.80;;;4.30;99.90;;;;;;5036651;28;20582;-80
2021/12/05 07:05:44;;;;;;;1.85;0.80;;;4.30;99.90;;;;;;5034891;28;20144;-80
2021/12/05 07:08:15;;;;;;;4.22;0.80;;;4.30;99.90;;;;;;5035123;28;20076;-77
2021/12/05 07:10:49;;;;;;;2.97;0.80;;;4.40;99.90;;;;;;5038866;28;20050;-80
2021/12/05 07:16:11;;;;;;;3.60;0.93;;;4.40;99.90;;;;;;5033511;28;20425;-80
2021/12/05 07:18:49;;;;;;;4.53;1.13;;;4.50;99.90;;;;;;5049230;28;20072;-79
2021/12/05 07:21:28;;;;;;;3.70;0.90;;;4.50;99.90;;;;;;5041281;28;20053;-79
2021/12/05 07:24:04;;;;;;;2.80;0.80;;;4.50;99.90;;;;;;5033588;28;20176;-78
2021/12/05 07:26:48;;;;;;;3.50;0.90;;;4.50;99.90;;;;;;5029586;28;20586;-80
2021/12/05 07:40:27;;;;;;;3.47;1.02;;;4.50;99.90;;;;;;5032786;28;20087;-78
2021/12/05 07:42:58;;;;;;;2.35;0.85;;;4.40;99.90;;;;;;5031044;28;20095;-78
2021/12/05 07:45:33;;;;;;;4.35;1.17;;;4.40;99.90;;;;;;5031269;28;20041;-79
2021/12/05 07:48:06;;;;;;;4.63;1.10;;;4.40;99.90;;;;;;5030819;28;20046;-77
2021/12/05 07:50:47;;;;;;;3.03;0.90;;;4.40;99.90;;;;;;5032597;28;20042;-81
2021/12/05 07:53:21;;;;;;;7.18;1.33;;;4.40;99.90;;;;;;5034390;28;20123;-80
2021/12/05 07:55:52;;;;;;;3.58;0.93;;;4.40;99.90;;;;;;5034816;28;20128;-82
2021/12/05 07:58:46;;;;;;;5.57;0.93;;;4.30;99.90;;;;;;5033918;28;20053;-78
2021/12/05 08:15:10;;;;;;;;;;;4.40;99.90;;;;;;5055500;28;20099;-81
2021/12/05 08:17:38;;;;;;;8.40;2.88;;;4.40;99.90;;;;;;5058804;28;19921;-81
2021/12/05 08:20:11;;;;;;;7.57;3.10;;;4.40;99.90;;;;;;5036015;28;20585;-83
2021/12/05 08:22:39;;;;;;;7.28;2.75;;;4.40;99.90;;;;;;5040250;28;20041;-82
2021/12/05 08:25:12;;;;;;;18.27;6.55;;;4.40;99.90;;;;;;5055367;28;20077;-82
2021/12/05 08:27:45;;;;;;;8.98;3.50;;;4.40;99.90;;;;;;5039098;28;20067;-81
2021/12/05 08:30:19;;;;;;;6.43;2.28;;;4.40;99.90;;;;;;5035417;28;20045;-82
2021/12/05 08:32:58;;;;;;;4.75;1.40;;;4.50;99.90;;;;;;5034715;28;20052;-82
2021/12/05 08:35:49;;;;;;;3.92;1.40;;;4.50;99.90;;;;;;5035332;28;20052;-82
2021/12/05 08:39:13;;;;;;;3.85;1.05;;;4.50;99.90;;;;;;5036952;28;20109;-83
2021/12/05 09:26:19;;;;;;;4.68;1.48;;;5.00;99.90;;;;;;5031825;28;20104;-83
2021/12/05 09:29:15;;;;;;;6.13;1.52;;;4.90;99.90;;;;;;5029873;28;20506;-83
2021/12/05 09:40:31;;;;;;;4.80;2.20;;;4.80;99.90;;;;;;5004121;28;19924;-82
2021/12/05 09:51:55;;;;;;;5.60;2.40;;;4.90;99.90;;;;;;5034238;28;20061;-88
2021/12/05 10:02:48;;;;;;;3.47;1.20;;;5.20;99.90;;;;;;5013924;28;20053;-84
2021/12/05 10:11:12;;;;;;;4.75;1.10;;;5.50;99.90;;;;;;5013380;28;20077;-84
2021/12/05 10:13:55;;;;;;;3.90;1.05;;;5.60;99.90;;;;;;5014196;28;20503;-86
2021/12/05 10:16:47;;;;;;;3.63;1.00;;;5.60;99.90;;;;;;5015289;28;20124;-88
2021/12/05 10:19:56;;;;;;;2.90;1.00;;;5.70;99.90;;;;;;5014876;28;20396;-87
2021/12/05 10:36:16;;;;;;;3.03;0.90;;;5.90;98.20;;;;;;5035098;28;20049;-84
2021/12/05 10:38:47;;;;;;;5.00;1.00;;;5.90;98.60;;;;;;5033023;28;20084;-86
2021/12/05 10:44:06;;;;;;;4.32;1.00;;;6.00;98.90;;;;;;5034255;28;20171;-88
2021/12/05 10:46:35;;;;;;;3.20;0.88;;;6.10;98.90;;;;;;5035600;28;20068;-86
2021/12/05 10:49:07;;;;;;;3.85;1.02;;;6.10;98.80;;;;;;5033524;28;20132;-88
2021/12/05 10:51:38;;;;;;;5.10;1.63;;;6.10;98.70;;;;;;5035539;28;20068;-88
2021/12/05 10:54:08;;;;;;;2.38;0.77;;;6.10;98.50;;;;;;5035283;28;20136;-87
2021/12/05 10:56:39;;;;;;;4.03;1.05;;;6.10;98.10;;;;;;5034855;28;20107;-87
2021/12/05 10:59:10;;;;;;;3.00;1.13;;;6.10;97.50;;;;;;5034140;28;20045;-86
2021/12/05 11:01:41;;;;;;;3.60;1.02;;;6.00;97.90;;;;;;5037486;28;20072;-85
2021/12/05 11:04:12;;;;;;;2.47;0.98;;;6.10;98.00;;;;;;5035998;28;20058;-87
2021/12/05 11:06:49;;;;;;;3.72;1.00;;;6.00;97.90;;;;;;5052115;28;20135;-88
2021/12/05 11:09:21;;;;;;;4.07;1.02;;;6.00;98.10;;;;;;5059191;28;20049;-89
2021/12/05 11:11:52;;;;;;;4.53;1.88;;;6.10;97.70;;;;;;5047104;28;20136;-88
2021/12/05 11:14:22;;;;;;;5.03;1.77;;;6.10;97.60;;;;;;5039973;28;20101;-88
2021/12/05 11:17:01;;;;;;;3.53;1.48;;;6.20;97.40;;;;;;5034508;28;20132;-92
2021/12/05 11:19:43;;;;;;;3.63;1.10;;;6.30;97.20;;;;;;5031972;28;20053;-86
2021/12/05 11:22:20;;;;;;;11.02;4.28;;;6.30;97.10;;;;;;5034230;28;20072;-88
2021/12/05 11:24:53;;;;;;;8.93;3.45;;;6.40;96.80;;;;;;5033785;28;20054;-88
2021/12/05 11:27:42;;;;;;;8.07;2.88;;;6.50;96.70;;;;;;5032459;28;20087;-87
2021/12/05 11:30:16;;;;;;;4.35;1.25;;;6.50;96.20;;;;;;5017722;28;20137;-85
2021/12/05 11:32:50;;;;;;;2.72;0.90;;;6.60;96.10;;;;;;5030801;28;20128;-86
2021/12/05 11:35:33;;;;;;;4.30;1.07;;;6.60;95.50;;;;;;5029055;28;20059;-82
2021/12/05 11:38:11;;;;;;;3.15;0.88;;;6.70;95.50;;;;;;5028242;28;20045;-82
2021/12/05 11:40:51;;;;;;;3.25;1.13;;;6.70;95.70;;;;;;5027818;28;20045;-82
2021/12/05 11:43:23;;;;;;;3.80;1.00;;;6.80;95.40;;;;;;5027156;28;20401;-80
2021/12/05 11:45:57;;;;;;;6.30;1.13;;;6.70;95.30;;;;;;5029218;28;20049;-88
2021/12/05 11:48:27;;;;;;;3.97;1.05;;;6.70;95.20;;;;;;5030324;28;20133;-88
2021/12/05 11:50:57;;;;;;;3.88;0.80;;;6.70;95.40;;;;;;5030323;28;20075;-86
2021/12/05 11:53:42;;;;;;;2.65;0.82;;;6.70;94.90;;;;;;5030197;28;20505;-85
2021/12/05 11:56:11;;;;;;;3.33;0.80;;;6.70;95.30;;;;;;5030252;28;20050;-86
2021/12/05 11:58:39;;;;;;;2.80;0.80;;;6.70;95.50;;;;;;5028559;28;20470;-87
2021/12/05 12:01:10;;;;;;;3.20;0.90;;;6.70;96.30;;;;;;5030243;28;20050;-87
2021/12/05 12:03:38;;;;;;;3.55;1.02;;;6.70;95.50;;;;;;5029545;28;20136;-85
2021/12/05 12:06:09;;;;;;;3.47;0.80;;;6.70;94.80;;;;;;5029868;28;20070;-84
2021/12/05 12:08:37;;;;;;;3.63;0.73;;;6.70;95.10;;;;;;5029985;28;20372;-85
2021/12/05 12:11:04;;;;;;;3.60;0.70;;;6.70;94.90;;;;;;5030349;28;20053;-88
2021/12/05 12:13:35;;;;;;;2.65;0.75;;;6.70;94.70;;;;;;5035997;28;20306;-87
2021/12/05 12:16:07;;;;;;;2.97;0.80;;;6.60;94.60;;;;;;5052184;28;20049;-87
2021/12/05 12:18:39;;;;;;;3.05;1.10;;;6.60;94.90;;;;;;5044057;28;20075;-88
2021/12/05 12:21:13;;;;;;;4.82;0.98;;;6.60;94.60;;;;;;5054788;28;20049;-88
2021/12/05 12:23:41;;;;;;;4.32;0.90;;;6.60;94.80;;;;;;5058713;28;20517;-88
2021/12/05 12:26:10;;;;;;;3.65;0.93;;;6.60;94.80;;;;;;5055834;28;20136;-87
2021/12/05 12:28:40;;;;;;;3.35;0.93;;;6.60;94.70;;;;;;5031047;28;20180;-88
2021/12/05 12:31:13;;;;;;;4.05;0.85;;;6.60;94.90;;;;;;5030215;28;20124;-87
2021/12/05 12:33:44;;;;;;;3.17;0.82;;;6.60;95.30;;;;;;5031273;28;20073;-86
2021/12/05 12:36:13;;;;;;;3.45;1.10;;;6.60;95.50;;;;;;5030706;28;20418;-86
2021/12/05 12:38:44;;;;;;;2.75;0.82;;;6.60;95.70;;;;;;5030547;28;20057;-88
2021/12/05 12:41:19;;;;;;;4.15;0.95;;;6.60;96.10;;;;;;5030467;28;20546;-86
2021/12/05 12:43:54;;;;;;;3.50;1.00;;;6.50;96.10;;;;;;5031211;28;20049;-86
2021/12/05 12:46:31;;;;;;;2.55;0.70;;;6.40;96.10;;;;;;5030723;28;20060;-87
2021/12/05 12:49:22;;;;;;;2.17;0.70;;;6.40;96.20;;;;;;5052053;28;20132;-87
2021/12/05 12:51:54;;;;;;;4.13;0.90;;;6.30;96.50;;;;;;5054631;28;20133;-86
2021/12/05 12:54:28;;;;;;;3.20;0.70;;;6.30;96.80;;;;;;5055173;28;20068;-88
2021/12/05 12:57:11;;;;;;;2.03;0.70;;;6.30;96.90;;;;;;5037114;28;20047;-87
2021/12/05 12:59:42;;;;;;;3.13;0.73;;;6.40;97.10;;;;;;5046858;28;20125;-84
2021/12/05 13:02:27;;;;;;;6.03;0.73;;;6.90;97.80;;;;;;5041888;28;20129;-85
2021/12/05 13:10:32;;;;;;;3.70;0.80;;;11.20;87.30;;;;;;5033566;28;20055;-85
2021/12/05 13:13:05;;;;;;;3.40;1.10;;;11.90;80.50;;;;;;5037661;28;20076;-84
2021/12/05 13:15:42;;;;;;;2.75;0.80;;;13.50;77.80;;;;;;5031391;28;20068;-85
2021/12/05 13:18:28;;;;;;;3.08;0.70;;;15.60;66.30;;;;;;5034966;28;20124;-86
2021/12/05 13:21:01;;;;;;;2.85;0.90;;;17.50;57.50;;;;;;5032844;28;20578;-81
2021/12/05 13:23:38;;;;;;;2.25;0.75;;;18.30;51.80;;;;;;5030496;28;20053;-85
2021/12/05 13:26:27;;;;;;;2.80;0.80;;;19.30;49.70;;;;;;5040835;28;20052;-84
2021/12/05 13:28:58;;;;;;;2.78;0.70;;;19.60;44.70;;;;;;5033223;28;20067;-84
2021/12/05 13:31:51;;;;;;;1.90;0.60;;;19.50;45.30;;;;;;5012531;28;20097;-83
2021/12/05 13:34:28;;;;;;;3.45;0.73;;;;;;;;;;5032326;28;20045;-83
2021/12/05 13:36:58;;;;;;;1.67;0.60;;;;;;;;;;5032524;28;20064;-85
2021/12/05 13:39:55;;;;;;;2.08;0.60;;;14.70;49.70;;;;;;5036542;28;20080;-87
2021/12/05 13:42:26;;;;;;;3.30;0.80;;;13.40;52.90;;;;;;5032385;28;20213;-82
2021/12/05 13:45:11;;;;;;;1.83;0.63;;;12.40;55.90;;;;;;5043940;28;20057;-83
2021/12/05 13:47:48;;;;;;;3.10;0.90;;;11.60;58.60;;;;;;5029968;28;20128;-82
2021/12/05 13:50:37;;;;;;;2.72;0.70;;;10.90;60.70;;;;;;5036779;28;20080;-81
2021/12/05 13:53:40;;;;;;;3.92;1.23;;;10.20;63.10;;;;;;5028747;28;20046;-84
2021/12/05 13:56:14;;;;;;;4.33;1.50;;;9.70;65.20;;;;;;4990305;28;20052;-83
2021/12/05 13:58:48;;;;;;;2.95;0.90;;;9.30;67.30;;;;;;5006332;28;20054;-81
2021/12/05 14:01:26;;;;;;;3.75;1.00;;;8.90;69.40;;;;;;5010935;28;20056;-83
2021/12/05 14:04:23;;;;;;;2.80;1.00;;;8.60;71.20;;;;;;5035395;28;20095;-83
2021/12/05 14:06:58;;;;;;;3.95;1.00;;;8.30;73.60;;;;;;5027380;28;20049;-82
2021/12/05 14:09:35;;;;;;;4.00;0.93;;;8.10;76.50;;;;;;5037210;28;20049;-85
2021/12/05 14:12:11;;;;;;;2.90;0.88;;;8.00;79.30;;;;;;5040893;28;20080;-82
2021/12/05 14:14:42;;;;;;;1.92;0.82;;;7.80;81.70;;;;;;5032930;28;20057;-82
2021/12/05 14:17:12;;;;;;;3.63;0.85;;;7.70;83.80;;;;;;5031114;28;20049;-82
2021/12/05 14:19:42;;;;;;;3.30;0.98;;;7.60;85.30;;;;;;5031366;28;20394;-83
2021/12/05 14:22:14;;;;;;;4.22;1.05;;;7.60;87.00;;;;;;5030366;28;20049;-83
2021/12/05 14:24:44;;;;;;;4.45;1.15;;;7.60;88.00;;;;;;5029890;28;20136;-83
2021/12/05 14:27:18;;;;;;;4.22;1.08;;;7.60;88.50;;;;;;5038537;28;20073;-82
2021/12/05 14:29:49;;;;;;;4.00;1.20;;;7.50;89.40;;;;;;5037039;28;20073;-83
2021/12/05 14:32:23;;;;;;;3.10;1.20;;;7.50;90.10;;;;;;5038040;28;20132;-84
2021/12/05 14:34:52;;;;;;;2.85;1.00;;;7.50;90.40;;;;;;5037422;28;20056;-75
2021/12/05 14:37:24;;;;;;;3.33;0.80;;;7.50;90.80;;;;;;5030679;28;20128;-80
2021/12/05 14:39:55;;;;;;;3.97;1.20;;;7.50;90.90;;;;;;5038083;28;20552;-83
2021/12/05 14:42:26;;;;;;;3.10;1.00;;;7.50;91.40;;;;;;5034412;28;20046;-79
2021/12/05 14:44:57;;;;;;;3.40;1.00;;;7.40;91.10;;;;;;5031789;28;20152;-81
2021/12/05 14:47:28;;;;;;;2.72;1.05;;;7.40;91.10;;;;;;5029368;28;20137;-81
2021/12/05 14:50:00;;;;;;;3.88;1.15;;;7.40;91.30;;;;;;5029319;28;20157;-78
2021/12/05 14:52:34;;;;;;;3.10;0.90;;;7.40;91.50;;;;;;5028451;28;20118;-80
2021/12/05 14:55:04;;;;;;;2.70;1.00;;;7.30;91.70;;;;;;5030385;28;20103;-81
2021/12/05 14:57:41;;;;;;;2.78;0.90;;;7.30;91.70;;;;;;5028158;28;20183;-81
2021/12/05 15:00:14;;;;;;;5.10;1.10;;;7.30;91.90;;;;;;5025432;28;20212;-80
2021/12/05 15:02:41;;;;;;;2.92;1.00;;;7.30;92.10;;;;;;5027054;28;20132;-80
2021/12/05 15:05:11;;;;;;;5.05;1.10;;;7.30;92.30;;;;;;5026917;28;20132;-79
2021/12/05 15:07:39;;;;;;;3.15;1.00;;;7.20;92.40;;;;;;5027705;28;20089;-81
2021/12/05 15:10:09;;;;;;;3.25;1.10;;;7.20;92.60;;;;;;5027775;28;20132;-82
2021/12/05 15:12:38;;;;;;;3.00;0.98;;;7.20;92.80;;;;;;5034275;28;20124;-81
2021/12/05 15:15:10;;;;;;;2.83;0.98;;;7.20;92.90;;;;;;5048239;28;20052;-79
2021/12/05 15:17:41;;;;;;;3.50;1.13;;;7.20;92.90;;;;;;5048520;28;20132;-81
2021/12/05 15:20:13;;;;;;;2.67;1.00;;;7.10;92.90;;;;;;5033271;28;20617;-82
2021/12/05 15:22:41;;;;;;;7.90;3.70;;;7.10;93.00;;;;;;5027705;28;20136;-82
2021/12/05 15:25:14;;;;;;;11.68;5.07;;;7.10;93.10;;;;;;5024084;28;20049;-79
2021/12/05 15:27:44;;;;;;;12.52;5.13;;;7.00;93.20;;;;;;5027639;28;20060;-83
2021/12/05 15:30:16;;;;;;;9.85;4.70;;;7.00;93.30;;;;;;5027650;28;20085;-82
2021/12/05 15:32:45;;;;;;;6.68;2.15;;;6.90;93.50;;;;;;5026801;28;20138;-80
2021/12/05 15:35:16;;;;;;;4.63;1.80;;;6.90;93.70;;;;;;5027007;28;20138;-81
2021/12/05 15:37:48;;;;;;;4.50;1.88;;;6.80;93.90;;;;;;5027173;28;20180;-80
2021/12/05 15:40:15;;;;;;;4.90;1.35;;;6.80;94.00;;;;;;5027051;28;20049;-82
2021/12/05 15:42:44;;;;;;;3.63;1.30;;;6.80;94.20;;;;;;5027407;28;20853;-81
2021/12/05 15:45:16;;;;;;;4.30;1.10;;;6.70;94.40;;;;;;5026580;28;20125;-80
2021/12/05 15:47:46;;;;;;;2.60;1.10;;;6.70;94.50;;;;;;5026149;28;20132;-81
2021/12/05 15:50:15;;;;;;;3.90;1.10;;;6.70;94.50;;;;;;5028812;28;20260;-79
2021/12/05 15:52:47;;;;;;;3.03;1.15;;;6.60;94.60;;;;;;5028287;28;20483;-82
2021/12/05 15:55:19;;;;;;;3.00;1.20;;;6.60;94.70;;;;;;5027642;28;20049;-80
2021/12/05 15:57:54;;;;;;;4.45;1.30;;;6.60;94.80;;;;;;5024817;28;20045;-80
2021/12/05 16:00:25;;;;;;;3.38;1.17;;;6.50;95.00;;;;;;5027816;28;20057;-80
2021/12/05 16:03:03;;;;;;;2.53;0.98;;;6.50;95.00;;;;;;5027273;28;20136;-80
2021/12/05 16:05:32;;;;;;;2.30;1.00;;;6.50;95.10;;;;;;5021490;28;20136;-80
2021/12/05 16:08:07;;;;;;;4.65;1.80;;;6.50;95.20;;;;;;5027908;28;20055;-83
2021/12/05 16:10:36;;;;;;;3.58;1.60;;;6.50;95.20;;;;;;5039758;28;20132;-81
2021/12/05 16:13:14;;;;;;;3.72;1.45;;;6.50;95.30;;;;;;5027695;28;20119;-80
2021/12/05 16:15:42;;;;;;;3.92;1.40;;;6.50;95.30;;;;;;5027296;28;20067;-82
2021/12/05 16:18:10;;;;;;;3.90;1.40;;;6.50;95.30;;;;;;5027759;28;20052;-81
2021/12/05 16:20:41;;;;;;;6.25;2.85;;;6.50;95.30;;;;;;5024855;28;20052;-80
2021/12/05 16:23:22;;;;;;;4.75;2.20;;;6.50;95.30;;;;;;5027365;28;20049;-81
2021/12/05 16:26:09;;;;;;;4.32;1.65;;;6.50;95.40;;;;;;5031461;28;20059;-82
2021/12/05 16:28:42;;;;;;;3.65;1.25;;;6.40;95.60;;;;;;5027128;28;20057;-81
2021/12/05 16:31:15;;;;;;;4.38;1.30;;;6.40;95.80;;;;;;5017561;28;20050;-79
2021/12/05 16:33:50;;;;;;;4.45;1.30;;;6.40;95.70;;;;;;5031644;28;20046;-80
2021/12/05 16:36:19;;;;;;;3.97;1.40;;;6.30;95.90;;;;;;5031548;28;20057;-81
2021/12/05 16:38:50;;;;;;;3.67;1.30;;;6.30;96.00;;;;;;5031208;28;20052;-80
2021/12/05 16:41:23;;;;;;;3.67;1.02;;;6.30;96.10;;;;;;5030789;28;20072;-78
2021/12/05 16:43:58;;;;;;;2.47;1.00;;;6.30;96.40;;;;;;5031164;28;20049;-81
2021/12/05 16:46:30;;;;;;;2.67;1.13;;;6.20;96.40;;;;;;5030559;28;20049;-81
2021/12/05 16:49:00;;;;;;;2.35;0.90;;;6.20;96.60;;;;;;5030266;28;20125;-79
2021/12/05 16:51:33;;;;;;;2.50;0.85;;;6.10;96.80;;;;;;5030090;28;20069;-79
2021/12/05 16:54:12;;;;;;;2.45;0.80;;;6.10;97.00;;;;;;5030452;28;20491;-81
2021/12/05 16:56:56;;;;;;;1.95;0.75;;;6.00;97.10;;;;;;5030641;28;20050;-82
2021/12/05 16:59:31;;;;;;;1.80;0.60;;;5.90;97.30;;;;;;5031372;28;20052;-82
2021/12/05 17:02:15;;;;;;;2.35;0.75;;;5.90;97.60;;;;;;5030385;28;20049;-82
2021/12/05 17:04:57;;;;;;;1.65;0.63;;;5.90;97.70;;;;;;5030000;28;20052;-82
2021/12/05 17:07:48;;;;;;;1.67;0.60;;;5.90;97.80;;;;;;5030628;28;20045;-81
2021/12/05 17:10:39;;;;;;;2.55;0.85;;;5.90;97.90;;;;;;5029951;28;20046;-82
2021/12/05 17:13:14;;;;;;;1.90;0.73;;;5.80;98.00;;;;;;5030468;28;20119;-82
2021/12/05 17:15:54;;;;;;;2.15;0.70;;;5.80;98.10;;;;;;5030291;28;20578;-80
2021/12/05 17:18:25;;;;;;;2.28;0.77;;;5.70;98.20;;;;;;5030574;28;20045;-80
2021/12/05 17:20:55;;;;;;;1.85;0.70;;;5.70;98.30;;;;;;5030672;28;20049;-81
2021/12/05 17:23:29;;;;;;;3.70;1.00;;;5.60;98.40;;;;;;5029676;28;20076;-81
2021/12/05 17:26:08;;;;;;;3.92;0.90;;;5.60;98.40;;;;;;5031347;28;20056;-81
2021/12/05 17:28:39;;;;;;;2.97;0.93;;;5.60;98.50;;;;;;5030423;28;20560;-82
2021/12/05 17:31:12;;;;;;;2.40;0.80;;;5.60;98.50;;;;;;5029893;28;20092;-81
2021/12/05 17:33:45;;;;;;;2.55;0.70;;;5.60;98.40;;;;;;5030257;28;20055;-80
2021/12/05 17:36:36;;;;;;;2.53;0.77;;;5.50;98.30;;;;;;5030262;28;20079;-80
2021/12/05 17:39:10;;;;;;;3.92;0.88;;;5.60;98.30;;;;;;5038627;28;20045;-81
2021/12/05 17:41:37;;;;;;;2.87;1.00;;;5.50;98.30;;;;;;5050124;28;20051;-82
2021/12/05 17:44:06;;;;;;;3.63;1.33;;;5.50;98.30;;;;;;5049969;28;20301;-80